createdAt,value
2023-03-08T00:00:31.789Z,0.40
2023-03-08T00:02:59.806Z,0.50
2023-03-08T00:05:27.797Z,0.50
2023-03-08T00:07:56.378Z,0.40
2023-03-08T00:10:25.946Z,0.40
2023-03-08T00:12:53.826Z,0.40
2023-03-08T00:15:21.609Z,0.40
2023-03-08T00:17:49.613Z,0.50
2023-03-08T00:20:17.777Z,0.50
2023-03-08T00:22:45.660Z,0.60
2023-03-08T00:25:16.313Z,0.50
2023-03-08T00:27:45.544Z,0.60
2023-03-08T00:30:14.346Z,0.50
2023-03-08T00:32:42.563Z,0.40
2023-03-08T00:35:10.937Z,0.40
2023-03-08T00:37:39.963Z,0.40
2023-03-08T00:40:09.833Z,0.50
2023-03-08T00:42:37.643Z,0.50
2023-03-08T00:45:08.436Z,0.70
2023-03-08T00:47:37.504Z,0.70
2023-03-08T00:50:08.264Z,0.80
2023-03-08T00:52:37.097Z,0.80
2023-03-08T00:55:05.317Z,0.80
2023-03-08T00:57:33.234Z,0.80
2023-03-08T01:00:01.231Z,0.80
2023-03-08T01:02:31.832Z,0.80
2023-03-08T01:04:59.804Z,0.80
2023-03-08T01:07:28.435Z,0.80
2023-03-08T01:09:56.650Z,0.90
2023-03-08T01:12:25.267Z,0.80
2023-03-08T01:14:54.219Z,0.90
2023-03-08T01:17:22.095Z,0.80
2023-03-08T01:19:51.467Z,0.80
2023-03-08T01:22:19.486Z,0.80
2023-03-08T01:24:47.624Z,0.80
2023-03-08T01:27:16.100Z,0.80
2023-03-08T01:29:45.082Z,0.80
2023-03-08T01:32:13.176Z,0.80
2023-03-08T01:34:41.075Z,0.70
2023-03-08T01:37:10.216Z,0.80
2023-03-08T01:39:38.149Z,0.80
2023-03-08T01:42:07.676Z,0.80
2023-03-08T01:44:51.701Z,0.70
2023-03-08T01:47:21.830Z,0.70
2023-03-08T01:50:25.432Z,0.60
2023-03-08T01:52:56.477Z,0.60
2023-03-08T01:55:24.410Z,0.50
2023-03-08T01:57:55.424Z,0.50
2023-03-08T02:00:26.707Z,0.40
2023-03-08T02:02:57.774Z,0.40
2023-03-08T02:05:27.921Z,0.40
2023-03-08T02:08:02.997Z,0.30
2023-03-08T02:10:36.518Z,0.30
2023-03-08T02:13:04.925Z,0.20
2023-03-08T02:15:32.974Z,0.20
2023-03-08T02:18:00.828Z,0.10
2023-03-08T02:20:32.583Z,0.10
2023-03-08T02:23:10.886Z,0.10
2023-03-08T02:25:39.115Z,0.00
2023-03-08T02:28:09.903Z,0.00
2023-03-08T02:30:38.794Z,0.00
2023-03-08T02:33:06.606Z,0.00
2023-03-08T02:35:34.577Z,0.00
2023-03-08T02:38:02.391Z,0.00
2023-03-08T02:40:33.200Z,0.00
2023-03-08T02:43:01.084Z,-0.10
2023-03-08T02:45:28.943Z,-0.10
2023-03-08T02:47:56.847Z,-0.10
2023-03-08T02:50:24.876Z,-0.10
2023-03-08T02:52:52.787Z,-0.20
2023-03-08T02:55:20.601Z,-0.20
2023-03-08T02:57:49.820Z,-0.20
2023-03-08T03:00:20.221Z,-0.30
2023-03-08T03:02:48.358Z,-0.30
2023-03-08T03:05:16.154Z,-0.30
2023-03-08T03:07:44.884Z,-0.30
2023-03-08T03:10:20.245Z,-0.20
2023-03-08T03:12:51.049Z,-0.20
2023-03-08T03:15:21.899Z,-0.10
2023-03-08T03:17:53.838Z,-0.10
2023-03-08T03:20:21.915Z,-0.10
2023-03-08T03:22:49.796Z,0.00
2023-03-08T03:25:22.122Z,0.00
2023-03-08T03:27:53.717Z,0.00
2023-03-08T03:30:21.847Z,0.00
2023-03-08T03:32:49.682Z,0.10
2023-03-08T03:35:22.246Z,0.20
2023-03-08T03:37:50.371Z,0.20
2023-03-08T03:40:18.524Z,0.20
2023-03-08T03:42:50.135Z,0.20
2023-03-08T03:45:20.352Z,0.30
2023-03-08T03:47:50.225Z,0.30
2023-03-08T03:50:18.856Z,0.40
2023-03-08T03:52:59.019Z,0.40
2023-03-08T03:55:27.506Z,0.50
2023-03-08T03:57:56.279Z,0.50
2023-03-08T04:00:26.127Z,0.50
2023-03-08T04:03:05.825Z,0.60
2023-03-08T04:05:36.592Z,0.60
2023-03-08T04:08:04.980Z,0.60
2023-03-08T04:10:36.413Z,0.60
2023-03-08T04:13:04.303Z,0.70
2023-03-08T04:15:34.580Z,0.70
2023-03-08T04:18:06.794Z,0.70
2023-03-08T04:20:37.246Z,0.70
2023-03-08T04:23:06.020Z,0.70
2023-03-08T04:25:39.622Z,0.80
2023-03-08T04:28:10.947Z,0.70
2023-03-08T04:30:41.270Z,0.80
2023-03-08T04:33:09.441Z,0.70
2023-03-08T04:35:45.368Z,0.80
2023-03-08T04:38:14.833Z,0.80
2023-03-08T04:41:02.514Z,0.90
2023-03-08T04:43:37.491Z,0.90
2023-03-08T04:46:07.409Z,0.80
2023-03-08T04:48:38.591Z,0.90
2023-03-08T04:51:08.300Z,0.90
2023-03-08T04:53:39.018Z,0.90
2023-03-08T04:56:08.466Z,1.00
2023-03-08T04:58:37.633Z,1.00
2023-03-08T05:01:15.986Z,1.00
2023-03-08T05:03:44.787Z,1.00
2023-03-08T05:06:14.949Z,1.00
2023-03-08T05:08:43.136Z,1.00
2023-03-08T05:11:17.293Z,1.10
2023-03-08T05:13:45.237Z,1.10
2023-03-08T05:16:14.903Z,1.10
2023-03-08T05:18:43.031Z,1.10
2023-03-08T05:21:13.964Z,1.10
2023-03-08T05:23:42.866Z,1.10
2023-03-08T05:26:14.106Z,1.20
2023-03-08T05:28:43.435Z,1.20
2023-03-08T05:31:15.360Z,1.20
2023-03-08T05:33:46.329Z,1.20
2023-03-08T05:36:17.831Z,1.20
2023-03-08T05:38:48.664Z,1.20
2023-03-08T05:41:17.491Z,1.20
2023-03-08T05:43:50.066Z,1.20
2023-03-08T05:46:21.279Z,1.20
2023-03-08T05:48:50.147Z,1.20
2023-03-08T05:51:20.258Z,1.20
2023-03-08T05:53:49.105Z,1.20
2023-03-08T05:56:20.227Z,1.20
2023-03-08T05:58:57.534Z,1.30
2023-03-08T06:01:29.824Z,1.30
2023-03-08T06:04:07.594Z,1.30
2023-03-08T06:06:39.310Z,1.30
2023-03-08T06:09:07.661Z,1.30
2023-03-08T06:11:38.905Z,1.30
2023-03-08T06:14:07.426Z,1.40
2023-03-08T06:16:37.737Z,1.30
2023-03-08T06:19:05.792Z,1.30
2023-03-08T06:21:35.097Z,1.30
2023-03-08T06:24:05.381Z,1.30
2023-03-08T06:26:34.026Z,1.30
2023-03-08T06:29:02.070Z,1.30
2023-03-08T06:31:32.063Z,1.30
2023-03-08T06:34:03.511Z,1.30
2023-03-08T06:36:31.785Z,1.30
2023-03-08T06:39:00.887Z,1.40
2023-03-08T06:41:29.552Z,1.40
2023-03-08T06:43:59.584Z,1.40
2023-03-08T06:46:27.507Z,1.40
2023-03-08T06:48:55.918Z,1.50
2023-03-08T06:51:25.546Z,1.60
2023-03-08T06:53:53.380Z,1.60
2023-03-08T06:56:24.270Z,1.60
2023-03-08T06:58:52.246Z,1.60
2023-03-08T07:01:20.063Z,1.60
2023-03-08T07:03:48.803Z,1.60
2023-03-08T07:06:17.217Z,1.60
2023-03-08T07:08:46.494Z,1.70
2023-03-08T07:11:14.302Z,1.70
2023-03-08T07:13:43.092Z,1.80
2023-03-08T07:16:12.742Z,1.70
2023-03-08T07:18:41.237Z,1.80
2023-03-08T07:21:10.172Z,1.70
2023-03-08T07:23:38.166Z,1.80
2023-03-08T07:26:08.390Z,1.80
2023-03-08T07:28:36.943Z,1.90
2023-03-08T07:31:05.013Z,1.90
2023-03-08T07:33:34.500Z,2.00
2023-03-08T07:36:02.950Z,2.00
2023-03-08T07:38:31.131Z,2.00
2023-03-08T07:40:59.194Z,2.00
2023-03-08T07:43:28.645Z,1.90
2023-03-08T07:46:02.207Z,1.80
2023-03-08T07:48:30.366Z,1.80
2023-03-08T07:51:03.402Z,1.90
2023-03-08T07:53:31.812Z,1.90
2023-03-08T07:55:59.992Z,1.90
2023-03-08T07:58:31.066Z,1.90
2023-03-08T08:00:58.966Z,1.90
2023-03-08T08:03:26.983Z,1.90
2023-03-08T08:05:54.921Z,2.00
2023-03-08T08:08:22.706Z,2.10
2023-03-08T08:10:50.568Z,2.10
2023-03-08T08:13:18.461Z,2.20
2023-03-08T08:15:47.875Z,2.30
2023-03-08T08:18:15.829Z,2.30
2023-03-08T08:20:44.346Z,2.30
2023-03-08T08:23:12.204Z,2.30
2023-03-08T08:25:40.373Z,2.30
2023-03-08T08:28:08.911Z,2.30
2023-03-08T08:30:36.691Z,2.40
2023-03-08T08:33:06.815Z,2.50
2023-03-08T08:35:43.036Z,2.60
2023-03-08T08:38:11.577Z,2.60
2023-03-08T08:40:39.433Z,2.70
2023-03-08T08:43:07.302Z,2.70
2023-03-08T08:45:35.137Z,2.80
2023-03-08T08:48:03.137Z,2.80
2023-03-08T08:50:32.286Z,2.80
2023-03-08T08:53:00.241Z,2.80
2023-03-08T08:55:28.069Z,2.90
2023-03-08T08:57:55.927Z,2.90
2023-03-08T09:00:24.195Z,2.90
2023-03-08T09:02:52.274Z,2.80
2023-03-08T09:05:20.206Z,2.90
2023-03-08T09:07:49.676Z,2.90
2023-03-08T09:10:17.852Z,2.90
2023-03-08T09:12:45.761Z,2.90
2023-03-08T09:15:13.708Z,2.90
2023-03-08T09:17:41.580Z,2.90
2023-03-08T09:20:10.600Z,2.90
2023-03-08T09:22:39.480Z,2.80
2023-03-08T09:25:10.863Z,2.80
2023-03-08T09:27:40.252Z,2.80
2023-03-08T09:30:12.594Z,2.70
2023-03-08T09:32:40.621Z,2.80
2023-03-08T09:35:08.800Z,2.80
2023-03-08T09:37:37.359Z,2.80
2023-03-08T09:40:09.464Z,2.80
2023-03-08T09:42:39.809Z,2.80
2023-03-08T09:45:17.203Z,2.80
2023-03-08T09:47:48.608Z,2.80
2023-03-08T09:50:25.384Z,2.70
2023-03-08T09:53:00.120Z,2.80
2023-03-08T09:55:31.098Z,2.80
2023-03-08T09:58:03.451Z,2.80
2023-03-08T10:00:33.368Z,2.90
2023-03-08T10:03:29.198Z,2.90
2023-03-08T10:06:03.220Z,3.00
2023-03-08T10:08:36.891Z,3.00
2023-03-08T10:11:07.442Z,2.90
2023-03-08T10:13:39.764Z,2.90
2023-03-08T10:16:16.085Z,2.90
2023-03-08T10:18:49.525Z,2.80
2023-03-08T10:21:20.562Z,2.70
2023-03-08T10:23:52.783Z,2.70
2023-03-08T10:26:20.771Z,2.70
2023-03-08T10:28:49.949Z,2.80
2023-03-08T10:31:22.853Z,2.90
2023-03-08T10:33:54.741Z,2.90
2023-03-08T10:36:24.198Z,3.00
2023-03-08T10:39:08.114Z,3.10
2023-03-08T10:41:43.428Z,3.00
2023-03-08T10:44:16.980Z,3.00
2023-03-08T10:46:50.846Z,3.10
2023-03-08T10:49:20.363Z,3.20
2023-03-08T10:51:56.870Z,3.20
2023-03-08T10:54:25.172Z,3.30
2023-03-08T10:56:56.406Z,3.30
2023-03-08T10:59:32.330Z,3.40
2023-03-08T11:02:04.140Z,3.50
2023-03-08T11:04:32.633Z,3.50
2023-03-08T11:07:11.323Z,3.50
2023-03-08T11:09:39.360Z,3.60
2023-03-08T11:12:07.497Z,3.60
2023-03-08T11:14:37.354Z,3.60
2023-03-08T11:17:17.868Z,3.50
2023-03-08T11:20:00.055Z,3.50
2023-03-08T11:22:39.687Z,3.60
2023-03-08T11:25:19.102Z,3.60
2023-03-08T11:28:01.672Z,3.60
2023-03-08T11:30:43.100Z,3.60
2023-03-08T11:33:30.427Z,3.80
2023-03-08T11:36:06.262Z,3.90
2023-03-08T11:38:36.094Z,3.90
2023-03-08T11:41:14.580Z,4.10
2023-03-08T11:43:57.673Z,4.10
2023-03-08T11:46:33.658Z,4.20
2023-03-08T11:49:14.833Z,4.40
2023-03-08T11:51:49.400Z,4.50
2023-03-08T11:54:23.715Z,4.50
2023-03-08T11:56:55.377Z,4.50
2023-03-08T11:59:31.179Z,4.60
2023-03-08T12:02:05.596Z,4.60
2023-03-08T12:04:38.590Z,4.70
2023-03-08T12:07:10.621Z,4.70
2023-03-08T12:09:43.676Z,4.80
2023-03-08T12:12:19.776Z,4.90
2023-03-08T12:14:52.249Z,4.90
2023-03-08T12:17:26.864Z,5.10
2023-03-08T12:19:54.781Z,5.20
2023-03-08T12:22:33.427Z,5.10
2023-03-08T12:25:08.713Z,5.00
2023-03-08T12:27:45.668Z,5.00
2023-03-08T12:30:21.530Z,5.20
2023-03-08T12:32:54.672Z,5.40
2023-03-08T12:35:31.178Z,5.60
2023-03-08T12:38:01.483Z,5.60
2023-03-08T12:40:40.386Z,5.40
2023-03-08T12:43:12.785Z,5.50
2023-03-08T12:45:42.443Z,5.60
2023-03-08T12:48:24.211Z,5.70
2023-03-08T12:51:00.472Z,5.70
2023-03-08T12:53:36.040Z,5.80
2023-03-08T12:56:07.981Z,5.90
2023-03-08T12:58:40.248Z,5.90
2023-03-08T13:01:24.602Z,5.90
2023-03-08T13:03:53.880Z,6.00
2023-03-08T13:07:04.499Z,5.90
2023-03-08T13:09:37.023Z,5.70
2023-03-08T13:12:21.474Z,5.70
2023-03-08T13:15:02.040Z,5.60
2023-03-08T13:17:40.175Z,5.60
2023-03-08T13:20:18.441Z,5.70
2023-03-08T13:22:58.672Z,5.80
2023-03-08T13:25:40.489Z,5.90
2023-03-08T13:28:12.015Z,5.90
2023-03-08T13:30:46.844Z,5.80
2023-03-08T13:33:18.683Z,5.80
2023-03-08T13:36:00.519Z,5.80
2023-03-08T13:38:33.454Z,5.70
2023-03-08T13:41:01.452Z,5.70
2023-03-08T13:43:30.743Z,5.60
2023-03-08T13:46:01.395Z,5.60
2023-03-08T13:48:31.722Z,5.50
2023-03-08T13:51:01.692Z,5.60
2023-03-08T13:53:32.693Z,5.70
2023-03-08T13:56:03.313Z,5.60
2023-03-08T13:58:34.642Z,5.70
2023-03-08T14:01:05.186Z,5.80
2023-03-08T14:03:33.797Z,5.80
2023-03-08T14:06:03.085Z,5.80
2023-03-08T14:08:31.016Z,5.80
2023-03-08T14:11:01.431Z,5.70
2023-03-08T14:13:32.023Z,5.80
2023-03-08T14:16:01.669Z,5.90
2023-03-08T14:18:32.354Z,5.80
2023-03-08T14:21:07.295Z,5.80
2023-03-08T14:23:40.221Z,5.80
2023-03-08T14:26:23.632Z,5.80
2023-03-08T14:28:51.575Z,5.90
2023-03-08T14:31:27.211Z,5.90
2023-03-08T14:33:58.990Z,6.00
2023-03-08T14:36:30.350Z,6.10
2023-03-08T14:39:00.595Z,6.10
2023-03-08T14:41:33.546Z,6.10
2023-03-08T14:44:02.894Z,6.20
2023-03-08T14:46:31.650Z,6.10
2023-03-08T14:49:02.231Z,6.10
2023-03-08T14:51:40.277Z,6.10
2023-03-08T14:54:22.428Z,6.00
2023-03-08T14:56:50.782Z,5.80
2023-03-08T14:59:27.360Z,5.70
2023-03-08T15:01:55.955Z,5.70
2023-03-08T15:04:25.936Z,5.70
2023-03-08T15:06:55.988Z,5.70
2023-03-08T15:09:24.205Z,5.50
2023-03-08T15:11:53.899Z,5.30
2023-03-08T15:14:21.775Z,5.20
2023-03-08T15:16:50.994Z,5.20
2023-03-08T15:19:18.830Z,5.20
2023-03-08T15:21:46.619Z,5.30
2023-03-08T15:24:18.382Z,5.20
2023-03-08T15:26:46.776Z,5.10
2023-03-08T15:29:27.028Z,5.00
2023-03-08T15:31:56.115Z,4.90
2023-03-08T15:34:27.491Z,4.80
2023-03-08T15:36:56.061Z,4.70
2023-03-08T15:39:25.207Z,4.80
2023-03-08T15:41:53.157Z,4.80
2023-03-08T15:44:20.983Z,4.80
2023-03-08T15:46:50.347Z,4.70
2023-03-08T15:49:20.177Z,4.60
2023-03-08T15:51:48.121Z,4.60
2023-03-08T15:54:16.017Z,4.60
2023-03-08T15:56:45.190Z,4.60
2023-03-08T15:59:13.169Z,4.50
2023-03-08T16:01:41.083Z,4.50
2023-03-08T16:04:09.039Z,4.50
2023-03-08T16:06:36.966Z,4.50
2023-03-08T16:09:04.938Z,4.50
2023-03-08T16:11:33.165Z,4.50
2023-03-08T16:14:02.431Z,4.40
2023-03-08T16:16:44.384Z,4.50
2023-03-08T16:19:13.164Z,4.40
2023-03-08T16:21:40.978Z,4.40
2023-03-08T16:24:09.727Z,4.40
2023-03-08T16:26:37.720Z,4.30
2023-03-08T16:29:06.950Z,4.30
2023-03-08T16:31:35.579Z,4.30
2023-03-08T16:34:03.710Z,4.30
2023-03-08T16:36:31.728Z,4.20
2023-03-08T16:38:59.843Z,4.20
2023-03-08T16:41:29.948Z,4.10
2023-03-08T16:43:58.101Z,4.00
2023-03-08T16:46:27.771Z,4.00
2023-03-08T16:48:56.457Z,3.80
2023-03-08T16:51:27.465Z,3.80
2023-03-08T16:53:55.654Z,3.90
2023-03-08T16:56:25.547Z,4.30
2023-03-08T16:58:54.856Z,4.80
2023-03-08T17:01:22.894Z,5.00
2023-03-08T17:03:52.746Z,4.80
2023-03-08T17:06:23.000Z,4.50
2023-03-08T17:08:51.847Z,4.30
2023-03-08T17:11:22.809Z,4.20
2023-03-08T17:13:52.412Z,4.00
2023-03-08T17:16:21.539Z,3.80
2023-03-08T17:18:50.478Z,3.80
2023-03-08T17:21:20.951Z,3.70
2023-03-08T17:23:49.800Z,3.50
2023-03-08T17:26:19.549Z,3.50
2023-03-08T17:28:49.375Z,3.50
2023-03-08T17:31:21.066Z,3.50
2023-03-08T17:33:49.650Z,3.40
2023-03-08T17:36:19.647Z,3.40
2023-03-08T17:38:47.601Z,3.30
2023-03-08T17:41:16.984Z,3.20
2023-03-08T17:43:44.863Z,3.20
2023-03-08T17:46:14.792Z,3.10
2023-03-08T17:48:43.216Z,3.00
2023-03-08T17:51:12.570Z,3.00
2023-03-08T17:53:41.931Z,2.90
2023-03-08T17:56:11.149Z,2.90
2023-03-08T17:58:39.164Z,2.90
2023-03-08T18:01:11.326Z,2.90
2023-03-08T18:03:39.723Z,2.90
2023-03-08T18:06:08.805Z,2.90
2023-03-08T18:08:37.291Z,2.80
2023-03-08T18:11:06.974Z,2.80
2023-03-08T18:13:34.815Z,2.70
2023-03-08T18:16:04.383Z,2.70
2023-03-08T18:18:32.542Z,2.70
2023-03-08T18:21:12.069Z,2.70
2023-03-08T18:23:41.738Z,2.70
2023-03-08T18:26:11.214Z,2.60
2023-03-08T18:28:39.090Z,2.50
2023-03-08T18:31:08.989Z,2.50
2023-03-08T18:33:37.256Z,2.50
2023-03-08T18:36:05.899Z,2.50
2023-03-08T18:38:34.136Z,2.40
2023-03-08T18:41:10.995Z,2.40
2023-03-08T18:43:41.004Z,2.40
2023-03-08T18:46:11.860Z,2.30
2023-03-08T18:48:40.054Z,2.40
2023-03-08T18:51:07.999Z,2.20
2023-03-08T18:53:37.012Z,2.20
2023-03-08T18:56:05.712Z,2.20
2023-03-08T18:58:33.986Z,2.20
2023-03-08T19:01:03.307Z,2.20
2023-03-08T19:03:31.454Z,2.20
2023-03-08T19:06:02.880Z,2.20
2023-03-08T19:08:30.803Z,2.10
2023-03-08T19:10:59.000Z,2.10
2023-03-08T19:13:26.967Z,2.10
2023-03-08T19:15:54.773Z,2.10
2023-03-08T19:18:24.051Z,2.10
2023-03-08T19:20:51.918Z,2.10
2023-03-08T19:23:19.816Z,2.10
2023-03-08T19:26:05.042Z,2.00
2023-03-08T19:28:32.920Z,2.00
2023-03-08T19:31:00.734Z,2.00
2023-03-08T19:33:31.660Z,1.90
2023-03-08T19:36:00.099Z,1.90
2023-03-08T19:38:27.965Z,1.90
2023-03-08T19:40:55.882Z,1.80
2023-03-08T19:43:24.742Z,1.80
2023-03-08T19:45:52.674Z,1.80
2023-03-08T19:48:20.838Z,1.80
2023-03-08T19:50:50.783Z,1.80
2023-03-08T19:53:18.606Z,1.80
2023-03-08T19:55:50.752Z,1.80
2023-03-08T19:58:19.953Z,1.70
2023-03-08T20:00:48.889Z,1.60
2023-03-08T20:03:18.263Z,1.70
2023-03-08T20:05:48.504Z,1.60
2023-03-08T20:08:17.647Z,1.60
2023-03-08T20:10:45.513Z,1.60
2023-03-08T20:13:13.432Z,1.60
2023-03-08T20:15:41.440Z,1.60
2023-03-08T20:18:09.241Z,1.70
2023-03-08T20:20:37.242Z,1.60
2023-03-08T20:23:05.093Z,1.60
2023-03-08T20:25:35.404Z,1.60
2023-03-08T20:28:03.435Z,1.60
2023-03-08T20:30:31.242Z,1.60
2023-03-08T20:32:59.143Z,1.60
2023-03-08T20:35:27.044Z,1.50
2023-03-08T20:37:54.939Z,1.50
2023-03-08T20:40:22.932Z,1.50
2023-03-08T20:42:52.301Z,1.50
2023-03-08T20:45:23.730Z,1.60
2023-03-08T20:47:54.319Z,1.50
2023-03-08T20:50:23.049Z,1.60
2023-03-08T20:52:50.919Z,1.60
2023-03-08T20:55:19.469Z,1.60
2023-03-08T20:57:47.291Z,1.60
2023-03-08T21:00:17.337Z,1.50
2023-03-08T21:02:45.333Z,1.50
2023-03-08T21:05:13.664Z,1.50
2023-03-08T21:07:41.566Z,1.40
2023-03-08T21:10:10.359Z,1.40
2023-03-08T21:12:39.154Z,1.40
2023-03-08T21:15:08.322Z,1.40
2023-03-08T21:17:39.801Z,1.40
2023-03-08T21:20:10.719Z,1.40
2023-03-08T21:22:39.241Z,1.40
2023-03-08T21:25:07.803Z,1.30
2023-03-08T21:27:36.708Z,1.30
2023-03-08T21:30:05.031Z,1.30
2023-03-08T21:32:33.248Z,1.30
2023-03-08T21:35:02.729Z,1.30
2023-03-08T21:37:30.808Z,1.30
2023-03-08T21:39:58.713Z,1.40
2023-03-08T21:42:27.028Z,1.30
2023-03-08T21:44:54.844Z,1.30
2023-03-08T21:47:22.685Z,1.40
2023-03-08T21:49:50.525Z,1.30
2023-03-08T21:52:19.744Z,1.30
2023-03-08T21:54:47.514Z,1.30
2023-03-08T21:57:15.351Z,1.30
2023-03-08T21:59:43.190Z,1.30
2023-03-08T22:02:11.271Z,1.30
2023-03-08T22:04:39.754Z,1.30
2023-03-08T22:07:09.214Z,1.30
2023-03-08T22:09:38.336Z,1.30
2023-03-08T22:12:06.962Z,1.30
2023-03-08T22:14:34.905Z,1.30
2023-03-08T22:17:03.242Z,1.20
2023-03-08T22:19:31.041Z,1.30
2023-03-08T22:21:59.477Z,1.30
2023-03-08T22:24:27.609Z,1.30
2023-03-08T22:26:56.853Z,1.20
2023-03-08T22:29:24.713Z,1.20
2023-03-08T22:31:53.360Z,1.20
2023-03-08T22:34:21.219Z,1.30
2023-03-08T22:36:49.109Z,1.20
2023-03-08T22:39:16.925Z,1.30
2023-03-08T22:41:44.765Z,1.30
2023-03-08T22:44:15.669Z,1.30
2023-03-08T22:46:43.761Z,1.20
2023-03-08T22:49:12.557Z,1.30
2023-03-08T22:51:41.345Z,1.20
2023-03-08T22:54:10.067Z,1.20
2023-03-08T22:56:37.990Z,1.20
2023-03-08T22:59:05.836Z,1.20
2023-03-08T23:01:35.174Z,1.30
2023-03-08T23:04:04.226Z,1.20
2023-03-08T23:06:33.609Z,1.20
2023-03-08T23:09:07.103Z,1.30
2023-03-08T23:11:36.012Z,1.30
2023-03-08T23:14:04.090Z,1.30
2023-03-08T23:16:32.212Z,1.30
2023-03-08T23:19:01.569Z,1.30
2023-03-08T23:21:31.799Z,1.30
2023-03-08T23:23:59.910Z,1.30
2023-03-08T23:26:28.666Z,1.30
2023-03-08T23:28:59.888Z,1.30
2023-03-08T23:31:29.931Z,1.30
2023-03-08T23:34:00.491Z,1.30
2023-03-08T23:36:31.693Z,1.30
2023-03-08T23:39:01.668Z,1.30
2023-03-08T23:41:29.590Z,1.30
2023-03-08T23:43:58.673Z,1.20
2023-03-08T23:46:27.194Z,1.30
2023-03-08T23:48:56.616Z,1.30
2023-03-08T23:51:26.859Z,1.20
2023-03-08T23:53:59.366Z,1.20
2023-03-08T23:56:30.863Z,1.20
2023-03-08T23:59:01.005Z,1.10
